Ladysmith, Virginia
Current Conditions -  °F | °C
As of 11:15 AM on Thursday 18 Dec 2014 (Local Time) from K7W4 Reporting Station
Clear Clear  
Wind Chill: 34°   Ceiling: Unl
Heat Index: 38°   Visibility: 10mi
Dew Point: 22°   Wind: 5mph
Humidity: 53%   Direction: 350°N
Pressure: 30.16"   Gusts: NA
Location:  38.02°N, 77.51°W
Report Text: K7W4 181615Z AUTO 35004KT 10SM CLR 03/M06 A3016 RMK AO1 T00311056
Loading
Personal Weather Stations






























Interactive Weather Map New forecast layout! Learn more

10-Day Weather Forecast

Advertisements
Track Severe Weather on mobile